createdAt,value
2018-07-13T00:02:05.339Z,99.90
2018-07-13T00:04:34.695Z,99.90
2018-07-13T00:07:04.147Z,99.90
2018-07-13T00:09:33.398Z,99.90
2018-07-13T00:14:31.427Z,99.90
2018-07-13T00:17:00.707Z,99.90
2018-07-13T00:19:30.044Z,99.90
2018-07-13T00:21:59.358Z,99.90
2018-07-13T00:24:28.721Z,99.90
2018-07-13T00:26:58.055Z,99.90
2018-07-13T00:29:27.445Z,99.90
2018-07-13T00:31:56.792Z,99.90
2018-07-13T00:36:55.040Z,99.90
2018-07-13T00:39:24.289Z,99.90
2018-07-13T00:41:53.620Z,99.90
2018-07-13T00:44:22.910Z,99.90
2018-07-13T00:46:52.207Z,99.90
2018-07-13T00:49:21.493Z,99.80
2018-07-13T00:51:50.795Z,99.80
2018-07-13T00:54:20.080Z,99.70
2018-07-13T00:59:18.206Z,99.30
2018-07-13T01:01:47.491Z,99.30
2018-07-13T01:04:16.819Z,99.30
2018-07-13T01:06:46.070Z,99.10
2018-07-13T01:11:44.115Z,98.40
2018-07-13T01:14:13.388Z,98.70
2018-07-13T01:16:42.693Z,98.50
2018-07-13T01:19:11.978Z,98.40
2018-07-13T01:21:41.310Z,98.00
2018-07-13T01:24:10.819Z,98.00
2018-07-13T01:26:40.124Z,98.10
2018-07-13T01:29:09.419Z,98.30
2018-07-13T01:31:38.699Z,98.00
2018-07-13T01:34:08.004Z,97.80
2018-07-13T01:36:37.303Z,97.90
2018-07-13T01:39:10.575Z,97.70
2018-07-13T01:41:39.871Z,97.70
2018-07-13T01:44:09.198Z,97.70
2018-07-13T01:46:38.502Z,97.70
2018-07-13T01:49:07.786Z,98.10
2018-07-13T01:51:37.169Z,98.60
2018-07-13T01:54:06.547Z,98.90
2018-07-13T01:59:04.593Z,99.20
2018-07-13T02:01:33.902Z,99.20
2018-07-13T02:04:03.175Z,98.90
2018-07-13T02:06:32.456Z,98.10
2018-07-13T02:09:01.755Z,97.70
2018-07-13T02:11:30.987Z,97.40
2018-07-13T02:14:00.301Z,97.20
2018-07-13T02:16:29.618Z,97.00
2018-07-13T02:18:58.909Z,97.00
2018-07-13T02:21:28.189Z,97.20
2018-07-13T02:23:57.499Z,97.60
2018-07-13T02:26:26.828Z,96.90
2018-07-13T02:31:24.859Z,96.50
2018-07-13T02:33:54.219Z,97.30
2018-07-13T02:38:52.417Z,98.50
2018-07-13T02:41:21.697Z,99.10
2018-07-13T02:43:50.995Z,99.50
2018-07-13T02:46:20.330Z,99.80
2018-07-13T02:48:49.625Z,99.90
2018-07-13T02:53:47.677Z,99.90
2018-07-13T02:56:16.966Z,99.90
2018-07-13T02:58:46.231Z,99.90
2018-07-13T03:01:15.529Z,99.90
2018-07-13T03:03:44.842Z,99.90
2018-07-13T03:06:14.170Z,99.90
2018-07-13T03:08:43.500Z,99.90
2018-07-13T03:13:41.576Z,99.90
2018-07-13T03:16:10.918Z,99.90
2018-07-13T03:18:40.190Z,99.90
2018-07-13T03:26:07.574Z,99.90
2018-07-13T03:28:36.847Z,99.90
2018-07-13T03:31:06.153Z,99.90
2018-07-13T03:33:35.425Z,99.90
2018-07-13T03:36:04.768Z,99.90
2018-07-13T03:41:02.874Z,99.90
2018-07-13T03:46:00.919Z,99.90
2018-07-13T03:48:30.330Z,99.90
2018-07-13T03:50:59.621Z,99.90
2018-07-13T03:53:28.938Z,99.90
2018-07-13T03:55:58.228Z,99.90
2018-07-13T03:58:27.477Z,99.90
2018-07-13T04:00:56.786Z,99.90
2018-07-13T04:03:26.093Z,99.90
2018-07-13T04:05:55.414Z,99.90
2018-07-13T04:08:24.732Z,99.90
2018-07-13T04:10:54.020Z,99.90
2018-07-13T04:13:23.300Z,99.90
2018-07-13T04:15:52.609Z,99.90
2018-07-13T04:18:23.526Z,99.90
2018-07-13T04:20:53.580Z,99.90
2018-07-13T04:23:24.342Z,99.90
2018-07-13T04:25:53.997Z,99.90
2018-07-13T04:28:23.870Z,99.90
2018-07-13T04:33:22.051Z,99.90
2018-07-13T04:35:51.334Z,99.90
2018-07-13T04:38:20.723Z,99.90
2018-07-13T04:40:50.071Z,99.90
2018-07-13T04:43:19.360Z,99.90
2018-07-13T04:48:17.716Z,99.90
2018-07-13T04:50:47.214Z,99.90
2018-07-13T04:53:16.784Z,99.90
2018-07-13T04:55:46.225Z,99.90
2018-07-13T04:58:15.731Z,99.90
2018-07-13T05:00:45.250Z,99.90
2018-07-13T05:05:43.668Z,99.90
2018-07-13T05:13:10.704Z,99.90
2018-07-13T05:15:40.096Z,99.90
2018-07-13T05:18:09.401Z,99.90
2018-07-13T05:20:38.828Z,99.90
2018-07-13T05:23:08.441Z,99.90
2018-07-13T05:25:37.939Z,99.90
2018-07-13T05:28:07.557Z,99.90
2018-07-13T05:30:37.106Z,99.90
2018-07-13T05:33:06.668Z,99.90
2018-07-13T05:35:36.235Z,99.90
2018-07-13T05:38:05.727Z,99.90
2018-07-13T05:40:35.202Z,99.90
2018-07-13T05:45:33.492Z,99.90
2018-07-13T05:48:02.983Z,99.90
2018-07-13T05:50:32.579Z,99.90
2018-07-13T05:53:02.183Z,99.90
2018-07-13T05:55:31.698Z,99.90
2018-07-13T05:58:01.177Z,99.90
2018-07-13T06:00:30.665Z,99.90
2018-07-13T06:03:00.180Z,99.90
2018-07-13T06:05:29.631Z,99.90
2018-07-13T06:07:59.406Z,99.90
2018-07-13T06:10:28.941Z,99.90
2018-07-13T06:12:58.672Z,99.90
2018-07-13T06:15:28.036Z,99.90
2018-07-13T06:17:57.447Z,99.90
2018-07-13T06:20:26.847Z,99.90
2018-07-13T06:22:56.195Z,99.90
2018-07-13T06:25:25.484Z,99.90
2018-07-13T06:27:54.940Z,99.90
2018-07-13T06:30:24.335Z,99.90
2018-07-13T06:32:53.707Z,99.90
2018-07-13T06:35:23.112Z,99.90
2018-07-13T06:37:52.672Z,99.90
2018-07-13T06:40:22.055Z,99.90
2018-07-13T06:42:51.521Z,99.90
2018-07-13T06:45:21.092Z,99.90
2018-07-13T06:47:50.494Z,99.90
2018-07-13T06:50:19.919Z,99.90
2018-07-13T06:52:49.382Z,99.90
2018-07-13T06:55:19.501Z,99.90
2018-07-13T06:57:59.610Z,99.90
2018-07-13T07:01:09.598Z,99.90
2018-07-13T07:04:50.810Z,99.90
2018-07-13T07:07:23.089Z,99.90
2018-07-13T07:09:54.635Z,99.90
2018-07-13T07:13:02.019Z,99.90
2018-07-13T07:15:31.409Z,99.90
2018-07-13T07:18:00.822Z,99.90
2018-07-13T07:20:30.257Z,99.90
2018-07-13T07:22:59.577Z,99.90
2018-07-13T07:25:29.084Z,99.90
2018-07-13T07:27:58.374Z,99.90
2018-07-13T07:30:27.891Z,99.90
2018-07-13T07:32:57.243Z,99.90
2018-07-13T07:35:26.678Z,99.90
2018-07-13T07:37:56.171Z,99.90
2018-07-13T07:40:25.488Z,99.90
2018-07-13T07:42:55.037Z,99.90
2018-07-13T07:45:24.565Z,99.90
2018-07-13T07:47:53.887Z,99.90
2018-07-13T07:50:23.204Z,99.90
2018-07-13T07:52:52.749Z,99.90
2018-07-13T07:55:22.080Z,99.90
2018-07-13T08:00:20.237Z,99.90
2018-07-13T08:02:49.568Z,99.90
2018-07-13T08:05:19.152Z,99.90
2018-07-13T08:07:48.465Z,99.90
2018-07-13T08:10:17.776Z,99.90
2018-07-13T08:12:47.162Z,99.90
2018-07-13T08:15:16.453Z,99.90
2018-07-13T08:17:45.853Z,99.90
2018-07-13T08:20:19.275Z,99.90
2018-07-13T08:22:56.962Z,99.90
2018-07-13T08:25:27.906Z,99.90
2018-07-13T08:28:01.208Z,99.90
2018-07-13T08:30:39.986Z,99.90
2018-07-13T08:33:09.689Z,99.90
2018-07-13T08:35:39.085Z,99.90
2018-07-13T08:38:08.611Z,99.90
2018-07-13T08:40:37.998Z,99.90
2018-07-13T08:43:07.476Z,99.90
2018-07-13T08:45:36.974Z,99.90
2018-07-13T08:48:06.507Z,99.90
2018-07-13T08:50:36.078Z,99.60
2018-07-13T08:55:34.815Z,99.10
2018-07-13T08:58:04.387Z,98.60
2018-07-13T09:00:33.719Z,98.70
2018-07-13T09:03:03.120Z,98.50
2018-07-13T09:05:32.543Z,98.20
2018-07-13T09:08:01.911Z,98.10
2018-07-13T09:10:31.377Z,98.20
2018-07-13T09:13:00.911Z,97.90
2018-07-13T09:15:30.299Z,97.40
2018-07-13T09:22:57.263Z,96.80
2018-07-13T09:25:26.641Z,96.80
2018-07-13T09:27:56.942Z,96.70
2018-07-13T09:30:26.322Z,96.60
2018-07-13T09:32:55.612Z,96.40
2018-07-13T09:35:24.968Z,96.20
2018-07-13T09:37:54.413Z,95.80
2018-07-13T09:40:23.734Z,95.70
2018-07-13T09:42:53.173Z,95.80
2018-07-13T09:45:22.671Z,96.20
2018-07-13T09:47:52.018Z,96.60
2018-07-13T09:52:56.660Z,97.30
2018-07-13T10:00:27.977Z,97.30
2018-07-13T10:02:57.421Z,97.20
2018-07-13T10:05:26.860Z,97.10
2018-07-13T10:07:56.241Z,97.20
2018-07-13T10:10:25.622Z,97.30
2018-07-13T10:12:54.944Z,97.00
2018-07-13T10:15:24.272Z,97.00
2018-07-13T10:17:53.786Z,97.00
2018-07-13T10:20:23.151Z,97.10
2018-07-13T10:22:52.815Z,96.70
2018-07-13T10:25:22.401Z,96.40
2018-07-13T10:27:52.170Z,96.60
2018-07-13T10:30:21.741Z,96.60
2018-07-13T10:32:51.242Z,96.60
2018-07-13T10:35:20.873Z,96.60
2018-07-13T10:37:50.288Z,96.70
2018-07-13T10:40:19.656Z,96.00
2018-07-13T10:42:49.063Z,95.60
2018-07-13T10:45:18.542Z,95.40
2018-07-13T10:47:47.982Z,95.00
2018-07-13T10:50:17.251Z,94.20
2018-07-13T10:52:46.628Z,94.10
2018-07-13T10:57:44.844Z,93.90
2018-07-13T11:00:14.256Z,93.50
2018-07-13T11:02:43.555Z,93.20
2018-07-13T11:05:12.889Z,93.00
2018-07-13T11:07:42.339Z,93.10
2018-07-13T11:10:11.713Z,93.10
2018-07-13T11:12:41.156Z,93.00
2018-07-13T11:15:10.479Z,93.00
2018-07-13T11:17:39.779Z,93.00
2018-07-13T11:20:09.071Z,93.00
2018-07-13T11:22:38.359Z,92.50
2018-07-13T11:25:07.620Z,92.40
2018-07-13T11:30:05.810Z,92.40
2018-07-13T11:32:35.143Z,92.30
2018-07-13T11:35:07.198Z,92.20
2018-07-13T11:37:36.575Z,92.20
2018-07-13T11:42:34.791Z,92.20
2018-07-13T11:45:04.109Z,92.00
2018-07-13T11:47:33.471Z,91.90
2018-07-13T11:52:31.547Z,91.80
2018-07-13T11:55:00.846Z,91.70
2018-07-13T11:57:30.186Z,91.80
2018-07-13T11:59:59.451Z,91.50
2018-07-13T12:02:28.720Z,91.40
2018-07-13T12:04:57.989Z,91.50
2018-07-13T12:07:27.317Z,91.30
2018-07-13T12:09:56.574Z,90.90
2018-07-13T12:14:54.617Z,91.60
2018-07-13T12:17:23.902Z,91.80
2018-07-13T12:19:53.217Z,91.80
2018-07-13T12:22:22.527Z,92.00
2018-07-13T12:24:51.959Z,92.00
2018-07-13T12:29:51.031Z,92.00
2018-07-13T12:32:20.389Z,92.20
2018-07-13T12:34:49.685Z,92.10
2018-07-13T12:37:19.127Z,92.00
2018-07-13T12:39:48.556Z,92.10
2018-07-13T12:44:46.837Z,91.80
2018-07-13T12:47:16.170Z,92.10
2018-07-13T12:52:14.373Z,91.80
2018-07-13T12:54:43.713Z,92.30
2018-07-13T12:57:13.047Z,91.90
2018-07-13T12:59:42.325Z,91.30
2018-07-13T13:02:11.682Z,91.30
2018-07-13T13:04:42.116Z,91.20
2018-07-13T13:07:11.478Z,91.40
2018-07-13T13:09:48.363Z,91.50
2018-07-13T13:14:54.029Z,91.50
2018-07-13T13:17:23.480Z,91.10
2018-07-13T13:19:52.837Z,91.40
2018-07-13T13:22:22.101Z,91.20
2018-07-13T13:24:51.419Z,91.60
2018-07-13T13:27:20.791Z,91.30
2018-07-13T13:29:50.171Z,91.50
2018-07-13T13:32:24.994Z,91.70
2018-07-13T13:34:54.468Z,91.70
2018-07-13T13:37:23.789Z,91.80
2018-07-13T13:39:53.145Z,91.60
2018-07-13T13:42:22.541Z,91.70
2018-07-13T13:44:51.927Z,91.70
2018-07-13T13:47:21.261Z,91.80
2018-07-13T13:49:50.584Z,91.80
2018-07-13T13:52:19.958Z,92.10
2018-07-13T13:54:49.441Z,92.10
2018-07-13T13:57:18.755Z,92.20
2018-07-13T13:59:48.110Z,92.10
2018-07-13T14:02:17.375Z,91.60
2018-07-13T14:04:46.761Z,91.60
2018-07-13T14:07:16.129Z,91.30
2018-07-13T14:09:45.567Z,90.80
2018-07-13T14:12:15.160Z,91.20
2018-07-13T14:14:44.548Z,91.80
2018-07-13T14:17:13.932Z,91.80
2018-07-13T14:19:43.371Z,92.00
2018-07-13T14:22:12.850Z,92.40
2018-07-13T14:24:42.240Z,92.50
2018-07-13T14:27:11.727Z,92.50
2018-07-13T14:29:41.100Z,92.60
2018-07-13T14:32:10.555Z,92.80
2018-07-13T14:34:39.944Z,92.70
2018-07-13T14:37:09.291Z,92.80
2018-07-13T14:39:38.666Z,92.90
2018-07-13T14:42:08.114Z,92.90
2018-07-13T14:44:37.438Z,92.70
2018-07-13T14:47:07.287Z,92.40
2018-07-13T14:49:36.532Z,92.20
2018-07-13T14:52:06.713Z,92.10
2018-07-13T14:54:36.100Z,91.70
2018-07-13T14:57:05.394Z,91.60
2018-07-13T14:59:34.807Z,91.60
2018-07-13T15:02:04.180Z,91.20
2018-07-13T15:07:03.003Z,90.00
2018-07-13T15:09:32.331Z,89.10
2018-07-13T15:12:01.692Z,89.10
2018-07-13T15:14:31.036Z,88.00
2018-07-13T15:17:00.783Z,87.90
2018-07-13T15:19:30.169Z,87.40
2018-07-13T15:21:59.505Z,87.20
2018-07-13T15:26:57.739Z,88.00
2018-07-13T15:29:27.066Z,87.90
2018-07-13T15:31:56.401Z,87.70
2018-07-13T15:34:26.541Z,87.10
2018-07-13T15:36:56.516Z,86.50
2018-07-13T15:41:54.683Z,86.60
2018-07-13T15:44:24.171Z,86.40
2018-07-13T15:46:53.552Z,86.30
2018-07-13T15:49:22.983Z,86.00
2018-07-13T15:51:52.498Z,86.20
2018-07-13T15:54:21.833Z,86.20
2018-07-13T15:59:20.180Z,85.60
2018-07-13T16:01:49.525Z,85.60
2018-07-13T16:04:18.937Z,85.40
2018-07-13T16:06:48.357Z,85.00
2018-07-13T16:09:17.712Z,84.40
2018-07-13T16:11:47.011Z,84.10
2018-07-13T16:14:16.399Z,83.90
2018-07-13T16:16:45.776Z,82.70
2018-07-13T16:19:15.074Z,83.50
2018-07-13T16:21:44.547Z,83.00
2018-07-13T16:26:46.708Z,83.10
2018-07-13T16:31:44.847Z,82.20
2018-07-13T16:34:14.231Z,83.10
2018-07-13T16:36:43.536Z,82.60
2018-07-13T16:39:12.948Z,83.00
2018-07-13T16:41:42.695Z,82.10
2018-07-13T16:44:13.028Z,81.90
2018-07-13T16:46:42.656Z,82.10
2018-07-13T16:49:12.000Z,82.00
2018-07-13T16:51:41.306Z,81.30
2018-07-13T16:54:10.806Z,82.30
2018-07-13T16:56:41.355Z,82.10
2018-07-13T16:59:10.950Z,81.80
2018-07-13T17:01:40.350Z,81.90
2018-07-13T17:04:09.861Z,82.40
2018-07-13T17:06:39.223Z,82.20
2018-07-13T17:09:11.914Z,82.60
2018-07-13T17:11:41.231Z,82.50
2018-07-13T17:14:10.582Z,82.10
2018-07-13T17:16:40.121Z,81.60
2018-07-13T17:19:09.449Z,81.90
2018-07-13T17:21:38.761Z,81.50
2018-07-13T17:24:08.061Z,81.50
2018-07-13T17:26:37.420Z,81.20
2018-07-13T17:29:10.096Z,80.80
2018-07-13T17:31:39.939Z,80.80
2018-07-13T17:34:09.246Z,80.90
2018-07-13T17:36:38.668Z,80.80
2018-07-13T17:39:08.402Z,81.10
2018-07-13T17:41:37.824Z,81.40
2018-07-13T17:44:10.727Z,81.50
2018-07-13T17:46:40.277Z,82.10
2018-07-13T17:49:10.065Z,82.00
2018-07-13T17:51:39.444Z,81.90
2018-07-13T17:54:08.940Z,81.30
2018-07-13T17:56:38.257Z,82.20
2018-07-13T17:59:08.179Z,82.60
2018-07-13T18:01:37.511Z,82.70
2018-07-13T18:04:07.119Z,83.20
2018-07-13T18:06:36.493Z,83.20
2018-07-13T18:09:06.722Z,84.20
2018-07-13T18:11:36.389Z,84.30
2018-07-13T18:14:05.820Z,83.40
2018-07-13T18:16:35.146Z,83.40
2018-07-13T18:19:04.568Z,82.70
2018-07-13T18:21:33.966Z,82.70
2018-07-13T18:24:03.415Z,83.00
2018-07-13T18:26:32.695Z,82.50
2018-07-13T18:31:31.107Z,83.10
2018-07-13T18:34:00.551Z,82.10
2018-07-13T18:36:30.179Z,82.10
2018-07-13T18:38:59.733Z,81.70
2018-07-13T18:41:29.425Z,81.60
2018-07-13T18:43:58.888Z,81.40
2018-07-13T18:51:26.104Z,80.80
2018-07-13T18:53:55.475Z,81.00
2018-07-13T18:56:24.907Z,81.10
2018-07-13T19:01:23.313Z,81.00
2018-07-13T19:03:53.065Z,82.10
2018-07-13T19:06:22.560Z,81.90
2018-07-13T19:08:51.955Z,82.30
2018-07-13T19:11:21.309Z,82.40
2018-07-13T19:18:48.359Z,81.80
2018-07-13T19:21:17.757Z,82.10
2018-07-13T19:23:47.311Z,82.30
2018-07-13T19:26:16.810Z,82.60
2018-07-13T19:31:14.877Z,81.50
2018-07-13T19:33:44.152Z,81.50
2018-07-13T19:36:13.545Z,81.30
2018-07-13T19:38:43.525Z,81.30
2018-07-13T19:41:12.897Z,82.20
2018-07-13T19:43:42.210Z,82.70
2018-07-13T19:48:40.365Z,84.00
2018-07-13T19:51:09.769Z,84.60
2018-07-13T19:53:39.105Z,83.90
2018-07-13T20:01:06.952Z,85.40
2018-07-13T20:03:36.382Z,85.30
2018-07-13T20:06:05.855Z,85.60
2018-07-13T20:08:35.173Z,85.60
2018-07-13T20:11:04.696Z,85.70
2018-07-13T20:13:34.337Z,85.60
2018-07-13T20:16:04.180Z,86.30
2018-07-13T20:18:33.833Z,87.30
2018-07-13T20:21:03.264Z,87.70
2018-07-13T20:23:32.633Z,87.60
2018-07-13T20:26:02.176Z,87.80
2018-07-13T20:28:31.502Z,87.50
2018-07-13T20:31:01.058Z,88.10
2018-07-13T20:35:59.508Z,88.60
2018-07-13T20:38:29.208Z,89.30
2018-07-13T20:40:58.498Z,89.50
2018-07-13T20:43:28.307Z,89.40
2018-07-13T20:45:57.959Z,89.20
2018-07-13T20:48:30.726Z,89.80
2018-07-13T20:51:00.237Z,89.70
2018-07-13T20:55:58.498Z,90.00
2018-07-13T20:58:27.855Z,90.00
2018-07-13T21:00:57.182Z,90.10
2018-07-13T21:03:26.668Z,90.30
2018-07-13T21:08:24.881Z,90.50
2018-07-13T21:10:54.187Z,90.70
2018-07-13T21:13:23.484Z,90.70
2018-07-13T21:15:52.872Z,90.70
2018-07-13T21:20:51.157Z,90.70
2018-07-13T21:23:20.484Z,90.80
2018-07-13T21:25:49.831Z,90.80
2018-07-13T21:28:19.311Z,90.70
2018-07-13T21:30:48.559Z,90.80
2018-07-13T21:33:17.793Z,90.90
2018-07-13T21:35:47.081Z,91.00
2018-07-13T21:38:16.362Z,91.20
2018-07-13T21:43:14.428Z,91.20
2018-07-13T21:45:43.756Z,91.40
2018-07-13T21:50:41.915Z,91.40
2018-07-13T21:53:11.176Z,91.70
2018-07-13T21:55:40.442Z,91.60
2018-07-13T22:00:38.517Z,91.70
2018-07-13T22:05:36.660Z,91.70
2018-07-13T22:08:05.992Z,91.40
2018-07-13T22:10:35.460Z,91.70
2018-07-13T22:13:04.761Z,91.70
2018-07-13T22:15:34.286Z,91.70
2018-07-13T22:18:03.740Z,92.10
2018-07-13T22:23:01.912Z,91.80
2018-07-13T22:28:00.267Z,91.60
2018-07-13T22:30:29.565Z,91.70
2018-07-13T22:32:59.040Z,91.70
2018-07-13T22:35:28.353Z,91.70
2018-07-13T22:37:57.756Z,91.60
2018-07-13T22:40:27.121Z,91.70
2018-07-13T22:42:56.966Z,91.70
2018-07-13T22:45:26.489Z,91.60
2018-07-13T22:47:55.857Z,91.80
2018-07-13T22:50:25.179Z,92.00
2018-07-13T22:52:54.589Z,92.00
2018-07-13T22:55:24.035Z,92.20
2018-07-13T22:57:53.749Z,92.50
2018-07-13T23:02:51.836Z,92.80
2018-07-13T23:05:21.115Z,93.10
2018-07-13T23:07:50.398Z,93.10
2018-07-13T23:10:19.664Z,93.20
2018-07-13T23:12:48.929Z,93.20
2018-07-13T23:15:18.273Z,93.10
2018-07-13T23:17:47.546Z,93.20
2018-07-13T23:22:45.579Z,92.80
2018-07-13T23:25:14.846Z,93.00
2018-07-13T23:27:44.240Z,93.30
2018-07-13T23:30:13.538Z,92.90
2018-07-13T23:35:11.567Z,93.40
2018-07-13T23:37:40.859Z,93.10
2018-07-13T23:40:10.121Z,93.40
2018-07-13T23:45:08.165Z,93.10
2018-07-13T23:47:37.417Z,93.20
2018-07-13T23:50:06.836Z,92.80
2018-07-13T23:52:36.167Z,92.90
2018-07-13T23:55:05.552Z,92.90
2018-07-13T23:57:34.830Z,93.00
